Malmo Sturup, Sweden

5:01 AM CET on December 25, 2014 (GMT +0100)
Svedala | Change Station
CLOSE
Current Station
Personal Weather Station
Location: Svedala, SK�NE L�N
Elevation: 177 ft
Nearby Weather Stations

Elev 177 ft 55.52 °N, 13.22 °E | Updated 11 seconds ago

Light Drizzle
Light Drizzle
38.3 °F
Feels Like 34 °F
N
5.8
Wind Variable Wind from NNW
Gusts 5.8 mph

Today
High -- | Low -- °F
--% Chance of Precip.
Yesterday
High -- | Low -- °F
Precip. -- in
8:34 AM 3:38 PM
Waxing Crescent, 13% visible
Pressure 29.74 in
Visibility 5.0 miles
Clouds Scattered Clouds 400 ft
Mostly Cloudy 700 ft
Overcast 1000 ft
Windchill 34 °F
Dew Point 34 °F
Humidity 86%
Rainfall 0.04 in
Snow Depth Not available.
UV 0 out of 12
Pollen Not available.
Air Quality Not available.
Flu Activity Not available.
METAR ESMS 250350Z AUTO 08008KT 8000 -DZ SCT004/// BKN007/// OVC010/// 02/01 Q1007

More Conditions Fewer Conditions

Pressure 29.74 in
Visibility 5.0 miles
Clouds Scattered Clouds 400 ft
Mostly Cloudy 700 ft
Overcast 1000 ft
Windchill 34 °F
Dew Point 34 °F
Humidity 86%
Rainfall 0.04 in
Snow Depth Not available.
UV 0 out of 12
Pollen Not available.
Air Quality Not available.
Flu Activity Not available.
METAR ESMS 250350Z AUTO 08008KT 8000 -DZ SCT004/// BKN007/// OVC010/// 02/01 Q1007

More Conditions Fewer Conditions

10-Day Weather Forecast

Almanac

Astronomy

Dec. 25, 2014 Rise Set
Actual Time
Civil Twilight
Nautical Twilight
Astronomical Twilight
Moon
Length of Visible Light
Length of Day
Tomorrow will be .
, % of the Moon is Illuminated

Today's Extremes

Country Highs Country Lows

Community

WunderPhotos

Upload Photos

1,780,226 photos uploaded!

WunderBlogs® & News

Nearby

Air Quality

  Air Quality AQ Index Pollutant
Not available.

Snow Depth

Station Depth Elevation

Earthquake Activity

City Distance Mag. Time & Date
Minimum magnitude displayed is 2.5.

Coastal Water Temperatures

Place Temperature

Nearby Weather Stations